Time;durP1;ratioP1;P1;durP2;ratioP2;P2;SDS_P1;SDS_P2;PMS_P1;PMS_P2;Temp;Humidity;BMP_temperature;BMP_pressure;BME280_temperature;BME280_humidity;BME280_pressure;Samples;Min_cycle;Max_cycle;Signal;HPM_P1;HPM_P2
2021/11/27 00:00:15;;;;;;;14.40;9.07;;;;;;;1.98;90.42;92176.41;5104073;28;20035;-43
2021/11/27 00:02:41;;;;;;;18.45;11.88;;;;;;;1.85;90.27;92167.50;5099829;28;20459;-43
2021/11/27 00:05:07;;;;;;;60.40;10.15;;;;;;;1.91;90.59;92157.97;5098451;28;20046;-42
2021/11/27 00:07:33;;;;;;;14.13;8.90;;;;;;;2.16;90.45;92159.22;5099762;28;20420;-44
2021/11/27 00:09:58;;;;;;;16.27;9.95;;;;;;;2.17;89.84;92173.56;5101672;28;20024;-46
2021/11/27 00:12:24;;;;;;;16.83;10.32;;;;;;;2.06;89.25;92165.59;5098206;28;20153;-45
2021/11/27 00:14:50;;;;;;;19.88;12.18;;;;;;;1.99;89.97;92161.53;5100693;28;20024;-44
2021/11/27 00:17:16;;;;;;;9.25;6.22;;;;;;;2.33;90.47;92169.78;5099654;28;20020;-44
2021/11/27 00:19:41;;;;;;;13.13;8.63;;;;;;;2.56;89.48;92170.03;5100715;28;20065;-43
2021/11/27 00:22:07;;;;;;;17.25;10.30;;;;;;;2.57;87.94;92158.63;5097188;28;20039;-46
2021/11/27 00:24:32;;;;;;;14.77;10.05;;;;;;;2.56;87.27;92162.59;5099329;28;20077;-44
2021/11/27 00:26:58;;;;;;;15.85;10.63;;;;;;;2.46;87.54;92167.03;5099012;28;20500;-43
2021/11/27 00:29:23;;;;;;;17.52;10.95;;;;;;;2.47;87.35;92165.03;5100032;28;20028;-43
2021/11/27 00:31:50;;;;;;;16.60;9.63;;;;;;;2.47;86.98;92173.22;5101308;28;20051;-43
2021/11/27 00:34:16;;;;;;;15.75;10.73;;;;;;;2.51;87.45;92184.50;5100379;28;20044;-44
2021/11/27 00:36:43;;;;;;;15.57;11.38;;;;;;;2.47;87.04;92168.47;5100794;28;20455;-43
2021/11/27 00:39:09;;;;;;;14.27;9.30;;;;;;;2.45;86.86;92184.63;5098157;28;20118;-45
2021/11/27 00:41:37;;;;;;;15.95;8.98;;;;;;;2.36;88.02;92182.31;5100509;28;20496;-43
2021/11/27 00:44:03;;;;;;;193.95;22.13;;;;;;;2.39;89.05;92167.66;5100489;28;20023;-44
2021/11/27 00:46:28;;;;;;;7.05;4.78;;;;;;;2.89;89.11;92180.94;5096941;28;20031;-42
2021/11/27 00:48:54;;;;;;;7.55;5.22;;;;;;;3.15;87.34;92157.53;5098080;28;20050;-43
2021/11/27 00:51:23;;;;;;;6.38;4.63;;;;;;;3.23;86.31;92163.81;5100385;28;20061;-42
2021/11/27 00:53:48;;;;;;;12.02;8.13;;;;;;;3.24;85.66;92176.16;5096450;28;20020;-48
2021/11/27 00:56:15;;;;;;;8.50;6.70;;;;;;;3.18;85.13;92168.13;5097355;28;20135;-46
2021/11/27 00:58:42;;;;;;;7.85;6.35;;;;;;;3.19;84.54;92168.84;5100641;28;20108;-45
2021/11/27 01:01:15;;;;;;;8.90;6.93;;;;;;;3.20;84.63;92156.69;5098536;28;20028;-45
2021/11/27 01:03:42;;;;;;;9.50;7.80;;;;;;;3.16;84.09;92159.75;5098329;28;20047;-46
2021/11/27 01:06:10;;;;;;;10.38;7.57;;;;;;;3.13;83.98;92170.97;5099850;28;20504;-45
2021/11/27 01:08:36;;;;;;;11.82;8.43;;;;;;;2.95;83.56;92176.09;5100082;28;20084;-45
2021/11/27 01:11:20;;;;;;;14.40;8.43;;;;;;;2.79;84.32;92171.03;5095549;28;20058;-47
2021/11/27 01:13:47;;;;;;;10.70;8.07;;;;;;;2.85;83.96;92158.00;5097809;28;20035;-47
2021/11/27 01:16:14;;;;;;;12.93;8.52;;;;;;;2.88;84.33;92163.09;5097829;28;20051;-47
2021/11/27 01:18:40;;;;;;;12.88;8.35;;;;;;;2.86;84.17;92143.81;5096934;28;20496;-44
2021/11/27 01:21:10;;;;;;;16.92;9.82;;;;;;;3.00;84.21;92166.31;5101018;28;20048;-44
2021/11/27 01:23:37;;;;;;;13.60;7.70;;;;;;;2.93;83.86;92162.25;5100609;28;20111;-44
2021/11/27 01:26:04;;;;;;;12.07;7.97;;;;;;;2.97;83.66;92168.09;5099746;28;20095;-45
2021/11/27 01:28:30;;;;;;;11.10;6.93;;;;;;;2.92;84.42;92170.97;5097719;28;20476;-44
2021/11/27 01:30:57;;;;;;;11.07;7.45;;;;;;;2.88;85.66;92165.84;5097716;28;20107;-46
2021/11/27 01:33:24;;;;;;;9.52;6.45;;;;;;;2.73;86.27;92165.69;5100019;28;20420;-45
2021/11/27 01:35:49;;;;;;;12.70;8.30;;;;;;;2.71;85.88;92168.19;5096280;28;20470;-45
2021/11/27 01:38:15;;;;;;;16.60;9.40;;;;;;;2.65;86.53;92153.97;5097631;28;20062;-44
2021/11/27 01:40:41;;;;;;;13.93;9.30;;;;;;;2.49;86.91;92163.22;5097277;28;20033;-46
2021/11/27 01:43:08;;;;;;;9.65;7.03;;;;;;;2.38;87.45;92165.47;5096319;28;20408;-43
2021/11/27 01:45:34;;;;;;;11.70;7.70;;;;;;;2.34;87.72;92154.88;5096794;28;20027;-44
2021/11/27 01:48:03;;;;;;;10.52;7.05;;;;;;;2.48;87.70;92158.31;5098594;28;20015;-44
2021/11/27 01:50:33;;;;;;;11.48;7.63;;;;;;;2.48;87.77;92166.50;5098148;28;20058;-44
2021/11/27 01:52:59;;;;;;;12.88;7.47;;;;;;;2.48;87.97;92180.09;5099030;28;20027;-43
2021/11/27 01:55:25;;;;;;;9.15;6.20;;;;;;;2.50;88.02;92175.59;5098004;28;20025;-43
2021/11/27 01:57:50;;;;;;;14.57;7.15;;;;;;;2.54;88.48;92173.28;5099281;28;20046;-43
2021/11/27 02:00:18;;;;;;;10.27;7.30;;;;;;;2.65;88.27;92180.47;5098268;28;20032;-44
2021/11/27 02:02:45;;;;;;;9.95;7.43;;;;;;;2.41;88.46;92135.19;5098823;28;20023;-42
2021/11/27 02:05:10;;;;;;;7.78;5.80;;;;;;;2.69;88.29;92181.63;5096552;28;20011;-42
2021/11/27 02:07:37;;;;;;;8.30;5.90;;;;;;;2.74;88.55;92158.97;5097360;28;20024;-45
2021/11/27 02:10:05;;;;;;;10.93;6.78;;;;;;;2.57;88.48;92141.53;5097843;28;20024;-45
2021/11/27 02:12:31;;;;;;;12.85;7.95;;;;;;;2.64;88.47;92177.03;5100915;28;20115;-47
2021/11/27 02:14:57;;;;;;;12.63;7.50;;;;;;;2.59;88.26;92163.53;5100527;28;20031;-48
2021/11/27 02:17:22;;;;;;;11.07;7.60;;;;;;;2.62;89.17;92157.03;5096940;28;20632;-46
2021/11/27 02:19:48;;;;;;;11.27;7.80;;;;;;;2.67;88.75;92161.59;5098033;28;20563;-45
2021/11/27 02:22:15;;;;;;;15.48;8.13;;;;;;;2.57;88.88;92172.25;5097924;28;20024;-47
2021/11/27 02:24:40;;;;;;;10.98;7.55;;;;;;;2.64;88.86;92185.19;5097136;28;20032;-44
2021/11/27 02:27:06;;;;;;;11.63;7.38;;;;;;;2.49;88.84;92155.06;5096676;28;20046;-45
2021/11/27 02:29:33;;;;;;;12.05;8.00;;;;;;;2.69;88.83;92176.19;5098060;28;20016;-47
2021/11/27 02:31:59;;;;;;;13.02;7.70;;;;;;;2.66;88.80;92169.06;5097679;28;20043;-47
2021/11/27 02:34:26;;;;;;;14.70;8.77;;;;;;;2.72;88.66;92163.50;5097342;28;20024;-47
2021/11/27 02:36:57;;;;;;;9.98;6.82;;;;;;;2.79;88.88;92169.03;5098752;28;20114;-45
2021/11/27 02:39:23;;;;;;;10.27;6.45;;;;;;;2.84;88.85;92170.88;5099222;28;20024;-46
2021/11/27 02:41:53;;;;;;;13.57;7.95;;;;;;;2.91;88.04;92167.50;5098414;28;20023;-47
2021/11/27 02:44:29;;;;;;;12.15;7.63;;;;;;;3.08;87.91;92172.56;5097516;28;20467;-44
2021/11/27 02:46:55;;;;;;;9.32;6.45;;;;;;;3.23;87.18;92180.19;5100293;28;20103;-43
2021/11/27 02:49:21;;;;;;;7.68;5.82;;;;;;;3.13;86.88;92190.06;5102357;28;20043;-46
2021/11/27 02:51:48;;;;;;;11.52;7.88;;;;;;;3.14;86.96;92191.53;5097101;28;20012;-43
2021/11/27 02:54:14;;;;;;;8.75;6.18;;;;;;;3.14;87.79;92180.63;5096523;28;20028;-42
2021/11/27 02:56:40;;;;;;;8.05;5.80;;;;;;;3.14;87.41;92186.09;5101399;28;20028;-42
2021/11/27 02:59:14;;;;;;;8.38;5.97;;;;;;;3.10;87.32;92185.69;5097430;28;20103;-42
2021/11/27 03:01:42;;;;;;;9.85;6.30;;;;;;;3.07;87.26;92199.09;5098281;28;20024;-46
2021/11/27 03:04:08;;;;;;;46.95;9.00;;;;;;;3.15;86.89;92182.09;5097317;28;20051;-43
2021/11/27 03:06:34;;;;;;;120.35;18.67;;;;;;;3.14;86.68;92184.06;5096078;28;20092;-44
2021/11/27 03:09:03;;;;;;;10.75;7.13;;;;;;;3.17;86.48;92187.72;5097546;28;20024;-44
2021/11/27 03:11:29;;;;;;;9.90;7.50;;;;;;;3.21;86.44;92166.31;5102371;28;20080;-44
2021/11/27 03:13:55;;;;;;;9.18;6.18;;;;;;;3.22;85.87;92165.81;5101637;28;20538;-43
2021/11/27 03:16:28;;;;;;;8.50;5.68;;;;;;;3.19;85.86;92168.84;5102242;27;20026;-44
2021/11/27 03:18:53;;;;;;;9.65;6.43;;;;;;;2.97;85.63;92140.84;5100332;28;20620;-43
2021/11/27 03:21:19;;;;;;;11.32;6.28;;;;;;;3.05;85.40;92162.75;5102447;28;20048;-45
2021/11/27 03:23:45;;;;;;;7.85;6.05;;;;;;;3.02;85.79;92186.34;5104371;28;20112;-45
2021/11/27 03:26:11;;;;;;;9.52;6.60;;;;;;;3.11;85.90;92173.50;5101805;28;20106;-43
2021/11/27 03:28:37;;;;;;;9.30;6.40;;;;;;;3.21;85.51;92177.97;5098757;28;20504;-42
2021/11/27 03:31:02;;;;;;;8.07;5.78;;;;;;;3.18;85.13;92178.31;5099269;28;20020;-43
2021/11/27 03:33:30;;;;;;;10.30;7.35;;;;;;;2.89;86.40;92153.69;5104000;28;20028;-43
2021/11/27 03:35:55;;;;;;;10.50;6.35;;;;;;;3.26;85.71;92162.72;5099295;28;20024;-44
2021/11/27 03:38:21;;;;;;;10.02;6.13;;;;;;;3.36;85.37;92178.09;5101080;28;20122;-44
2021/11/27 03:40:46;;;;;;;8.00;5.35;;;;;;;3.18;85.35;92137.41;5100849;28;20027;-43
2021/11/27 03:43:12;;;;;;;7.50;5.00;;;;;;;3.41;85.35;92160.88;5099298;28;20020;-43
2021/11/27 03:45:37;;;;;;;10.15;6.13;;;;;;;3.34;85.39;92186.06;5103255;28;20112;-43
2021/11/27 03:48:16;;;;;;;7.18;5.25;;;;;;;3.31;86.06;92191.88;5102184;28;20050;-45
2021/11/27 03:50:50;;;;;;;93.07;11.70;;;;;;;3.40;85.54;92162.13;5101398;28;20028;-45
2021/11/27 03:53:21;;;;;;;10.48;5.30;;;;;;;3.39;85.61;92168.13;5101513;28;20043;-43
2021/11/27 03:55:47;;;;;;;6.60;5.07;;;;;;;3.59;84.24;92167.38;5097235;28;20031;-43
2021/11/27 03:58:13;;;;;;;8.63;5.70;;;;;;;3.52;84.18;92157.84;5098448;28;20027;-45
2021/11/27 04:00:39;;;;;;;11.02;6.50;;;;;;;3.42;84.42;92145.22;5098052;28;20513;-45
2021/11/27 04:03:06;;;;;;;7.80;3.63;;;;;;;3.61;83.99;92168.31;5100616;28;20106;-44
2021/11/27 04:20:45;;;;;;;3.08;2.20;;;;;;;5.62;73.91;92170.13;5063896;28;20607;-45
2021/11/27 04:23:12;;;;;;;2.15;1.90;;;;;;;5.75;73.58;92182.91;5044114;28;20049;-45
2021/11/27 04:25:38;;;;;;;2.60;1.33;;;;;;;5.88;72.41;92193.72;5043853;28;20543;-44
2021/11/27 04:28:04;;;;;;;2.17;1.45;;;;;;;5.98;71.26;92211.03;5043732;28;20021;-44
2021/11/27 04:30:31;;;;;;;5.53;3.15;;;;;;;6.05;71.53;92207.56;5043939;28;20037;-44
2021/11/27 04:32:57;;;;;;;2.65;1.60;;;;;;;6.10;70.67;92190.97;5044029;28;20085;-43
2021/11/27 04:35:25;;;;;;;3.50;1.73;;;;;;;6.44;68.68;92217.19;5044093;28;20512;-45
2021/11/27 04:37:51;;;;;;;2.28;1.90;;;;;;;6.45;68.77;92219.41;5043871;28;20413;-44
2021/11/27 04:40:17;;;;;;;2.60;2.40;;;;;;;6.41;68.82;92223.78;5043598;28;20109;-44
2021/11/27 04:42:44;;;;;;;2.65;2.40;;;;;;;6.37;69.02;92234.38;5043871;28;20490;-44
2021/11/27 04:45:10;;;;;;;4.47;2.72;;;;;;;6.28;69.35;92240.44;5042887;28;20082;-43
2021/11/27 04:47:36;;;;;;;3.00;2.72;;;;;;;6.15;69.99;92235.88;5043456;28;20039;-43
2021/11/27 04:50:03;;;;;;;12.00;6.75;;;;;;;5.97;70.97;92224.03;5043610;28;20104;-43
2021/11/27 04:52:28;;;;;;;11.88;6.20;;;;;;;5.84;71.32;92226.22;5043649;28;20029;-44
2021/11/27 04:54:54;;;;;;;7.93;5.20;;;;;;;5.60;72.07;92246.63;5043332;28;20094;-44
2021/11/27 04:57:19;;;;;;;13.75;9.27;;;;;;;5.36;73.45;92242.38;5043533;28;20025;-42
2021/11/27 04:59:46;;;;;;;6.50;5.43;;;;;;;5.10;74.48;92256.34;5038364;28;20063;-41
2021/11/27 05:02:12;;;;;;;5.63;4.15;;;;;;;4.82;75.32;92248.22;5033963;28;20029;-42
2021/11/27 05:04:37;;;;;;;6.47;4.85;;;;;;;4.64;76.07;92265.63;5030627;28;20687;-44
2021/11/27 05:07:05;;;;;;;6.53;4.30;;;;;;;4.40;77.28;92269.50;5033171;28;20060;-46
2021/11/27 05:09:31;;;;;;;10.00;5.07;;;;;;;4.10;78.48;92263.84;5033305;28;20145;-44
2021/11/27 05:11:56;;;;;;;6.65;5.13;;;;;;;4.16;78.70;92278.06;5031630;28;20066;-43
2021/11/27 05:14:22;;;;;;;5.32;4.28;;;;;;;4.25;79.06;92280.34;5033350;28;20049;-42
2021/11/27 05:16:48;;;;;;;7.28;5.07;;;;;;;4.20;78.52;92266.81;5033246;28;20517;-46
2021/11/27 05:19:13;;;;;;;6.63;5.20;;;;;;;4.17;78.61;92276.81;5033741;28;20041;-43
2021/11/27 05:21:39;;;;;;;8.75;6.10;;;;;;;4.04;79.42;92276.16;5021630;28;20460;-43
2021/11/27 05:24:05;;;;;;;6.85;5.47;;;;;;;3.75;79.72;92269.94;5023531;28;20052;-43
2021/11/27 05:26:31;;;;;;;6.25;5.10;;;;;;;3.70;81.32;92298.81;5023747;28;20446;-43
2021/11/27 05:28:56;;;;;;;5.93;4.70;;;;;;;3.58;81.70;92280.50;5022891;28;20056;-43
2021/11/27 05:31:23;;;;;;;10.85;5.97;;;;;;;3.58;82.16;92305.06;5023114;28;20029;-44
2021/11/27 05:34:20;;;;;;;8.38;5.50;;;;;;;3.45;82.83;92283.28;5023296;28;20024;-41
2021/11/27 05:36:44;;;;;;;8.25;5.93;;;;;;;3.47;83.13;92294.41;5023236;28;20026;-41
2021/11/27 05:39:10;;;;;;;8.68;5.38;;;;;;;3.49;83.42;92309.00;5023514;28;20025;-43
2021/11/27 05:41:36;;;;;;;8.73;5.80;;;;;;;3.46;83.88;92320.97;5023201;28;20406;-43
2021/11/27 05:44:01;;;;;;;12.65;6.57;;;;;;;3.53;83.92;92316.88;5023226;28;20459;-42
2021/11/27 05:46:27;;;;;;;9.15;6.45;;;;;;;3.59;83.67;92320.19;5018512;28;20026;-43
2021/11/27 05:48:52;;;;;;;4.97;4.47;;;;;;;3.67;82.95;92310.81;5018999;28;20021;-43
2021/11/27 05:51:18;;;;;;;6.50;4.68;;;;;;;3.68;83.03;92306.09;5017257;28;20036;-46
2021/11/27 05:53:43;;;;;;;6.10;4.80;;;;;;;3.82;82.11;92310.22;5017991;28;20013;-46
2021/11/27 05:56:10;;;;;;;5.97;4.88;;;;;;;3.91;82.00;92323.41;5018990;28;20057;-43
2021/11/27 05:58:36;;;;;;;7.43;6.18;;;;;;;3.97;81.97;92331.44;5019501;28;20025;-46
2021/11/27 06:01:09;;;;;;;9.85;5.60;;;;;;;4.24;80.71;92330.78;5017665;28;20018;-42
2021/11/27 06:03:35;;;;;;;6.38;4.45;;;;;;;4.46;79.55;92321.28;5023470;28;20122;-43
2021/11/27 06:06:01;;;;;;;4.38;3.78;;;;;;;4.64;78.95;92320.28;5029103;28;20060;-45
2021/11/27 06:08:27;;;;;;;9.68;4.45;;;;;;;4.70;78.92;92325.63;5029373;28;20021;-43
2021/11/27 06:10:52;;;;;;;14.20;10.75;;;;;;;4.68;79.43;92337.09;5028674;28;20488;-44
2021/11/27 06:13:18;;;;;;;14.38;9.93;;;;;;;4.89;78.55;92342.50;5028979;28;20024;-42
2021/11/27 06:15:44;;;;;;;52.17;29.95;;;;;;;4.86;78.42;92349.03;5029233;28;20041;-42
2021/11/27 06:18:10;;;;;;;19.52;14.52;;;;;;;4.78;78.74;92351.00;5018303;28;20402;-42
2021/11/27 06:20:35;;;;;;;29.55;20.23;;;;;;;4.82;78.83;92351.38;5009156;28;20054;-42
2021/11/27 06:23:01;;;;;;;139.82;77.40;;;;;;;4.95;79.01;92343.06;5009131;28;20536;-43
2021/11/27 06:25:27;;;;;;;44.67;30.40;;;;;;;5.17;77.91;92342.47;5009436;28;20033;-43
2021/11/27 06:27:53;;;;;;;49.55;29.05;;;;;;;5.32;77.56;92340.53;5009042;28;20022;-42
2021/11/27 06:30:19;;;;;;;55.30;32.83;;;;;;;5.39;77.12;92350.03;5009250;28;20457;-42
2021/11/27 06:32:45;;;;;;;50.08;30.58;;;;;;;5.50;77.33;92355.16;5007954;28;20067;-43
2021/11/27 06:35:11;;;;;;;45.67;26.05;;;;;;;5.69;76.50;92343.94;5009313;28;20029;-42
2021/11/27 06:37:37;;;;;;;7.15;5.20;;;;;;;6.27;73.49;92354.81;5009295;28;20032;-45
2021/11/27 06:40:03;;;;;;;6.88;4.70;;;;;;;6.85;71.61;92340.16;5009105;28;20452;-45
2021/11/27 06:42:28;;;;;;;1.60;1.38;;;;;;;7.37;68.84;92344.78;5008793;28;20117;-44
2021/11/27 06:44:55;;;;;;;2.50;1.75;;;;;;;7.90;66.56;92333.56;5008816;28;20105;-45
2021/11/27 06:47:23;;;;;;;2.53;1.67;;;;;;;8.27;65.61;92326.41;5008970;28;20414;-45
2021/11/27 06:49:49;;;;;;;1.80;1.48;;;;;;;8.54;64.95;92321.03;5008594;28;20026;-42
2021/11/27 06:52:16;;;;;;;1.48;1.38;;;;;;;8.85;62.72;92325.72;5015235;28;20037;-44
2021/11/27 06:54:42;;;;;;;1.27;1.17;;;;;;;9.04;62.05;92331.41;5027614;28;20025;-42
2021/11/27 06:57:08;;;;;;;1.25;1.15;;;;;;;9.29;60.61;92330.63;5015380;28;20025;-44
2021/11/27 06:59:35;;;;;;;1.35;1.17;;;;;;;9.51;60.00;92332.38;5018144;28;20018;-42
2021/11/27 07:02:01;;;;;;;1.55;1.00;;;;;;;9.72;59.25;92340.97;5014819;28;20090;-43
2021/11/27 07:04:27;;;;;;;1.23;1.13;;;;;;;9.98;58.43;92334.00;5017633;28;20018;-43
2021/11/27 07:06:53;;;;;;;3.20;2.20;;;;;;;10.31;57.44;92338.00;5015133;28;20025;-42
2021/11/27 07:09:19;;;;;;;10.13;4.50;;;;;;;10.71;57.08;92340.31;5017432;28;20061;-44
2021/11/27 07:11:45;;;;;;;4.00;2.75;;;;;;;10.96;54.96;92324.97;5014181;28;20037;-45
2021/11/27 07:14:11;;;;;;;4.43;1.77;;;;;;;11.65;52.48;92336.22;5024573;28;20033;-43
2021/11/27 07:16:37;;;;;;;1.63;1.38;;;;;;;11.96;52.10;92331.59;5022434;28;20533;-43
2021/11/27 07:19:04;;;;;;;3.63;1.70;;;;;;;12.19;51.60;92334.59;5014372;28;20555;-43
2021/11/27 07:21:30;;;;;;;3.13;1.50;;;;;;;12.13;51.00;92339.72;5019109;28;20053;-44
2021/11/27 07:23:55;;;;;;;2.47;1.67;;;;;;;12.28;50.49;92337.94;5015070;28;20025;-43
2021/11/27 07:26:21;;;;;;;5.95;1.60;;;;;;;12.74;49.38;92330.03;5011022;28;20513;-46
2021/11/27 07:28:47;;;;;;;0.98;0.98;;;;;;;13.02;47.57;92329.19;5009908;28;20099;-44
2021/11/27 07:31:13;;;;;;;6.63;1.65;;;;;;;13.04;47.82;92328.59;5027709;28;20040;-43
2021/11/27 07:33:39;;;;;;;5.45;3.45;;;;;;;13.11;46.93;92325.66;5028090;28;20444;-43
2021/11/27 08:34:11;;;;;;;5.30;2.00;;;;;;;17.99;34.67;92310.06;5061019;28;20698;-44
2021/11/27 08:36:36;;;;;;;4.30;1.38;;;;;;;18.06;34.01;92309.72;5060777;28;20039;-45
2021/11/27 08:39:03;;;;;;;0.98;0.98;;;;;;;17.46;35.03;92326.25;5057765;28;20090;-48
2021/11/27 08:41:29;;;;;;;3.05;1.90;;;;;;;16.54;36.56;92333.28;5021304;28;20021;-45
2021/11/27 08:43:54;;;;;;;3.22;2.47;;;;;;;16.28;37.57;92329.03;5021979;28;20036;-44
2021/11/27 08:46:20;;;;;;;4.05;1.83;;;;;;;15.50;39.75;92319.75;5022117;28;20026;-46
2021/11/27 08:48:45;;;;;;;4.18;2.78;;;;;;;15.38;40.14;92325.28;5051112;28;20021;-45
2021/11/27 08:51:12;;;;;;;3.40;1.92;;;;;;;15.04;40.52;92326.78;5060087;28;20035;-45
2021/11/27 09:06:09;;;;;;;9.00;8.00;;;;;;;16.25;38.20;92307.97;5061783;28;20619;-47
2021/11/27 09:08:36;;;;;;;16.88;4.97;;;;;;;16.59;37.95;92316.16;5061608;28;20480;-52
2021/11/27 09:11:02;;;;;;;5.80;4.45;;;;;;;16.72;37.65;92328.66;5055852;28;20128;-49
2021/11/27 09:13:27;;;;;;;2.10;1.90;;;;;;;16.30;38.49;92332.66;5051981;27;20025;-49
2021/11/27 09:15:53;;;;;;;2.72;2.00;;;;;;;15.73;39.77;92330.81;5053154;28;20085;-49
2021/11/27 09:18:18;;;;;;;3.40;2.92;;;;;;;15.67;41.51;92331.19;5049608;28;20025;-50
2021/11/27 09:20:44;;;;;;;4.43;3.45;;;;;;;15.25;42.97;92327.97;5051446;28;20071;-48
2021/11/27 09:23:11;;;;;;;6.20;5.40;;;;;;;15.09;44.00;92328.47;5041456;28;20072;-47
2021/11/27 09:25:37;;;;;;;7.32;5.65;;;;;;;14.39;45.75;92322.16;5041428;28;20021;-48
2021/11/27 09:28:03;;;;;;;11.35;7.47;;;;;;;14.34;45.34;92314.88;5041423;28;20029;-47
2021/11/27 09:30:30;;;;;;;6.28;5.10;;;;;;;14.15;46.72;92315.06;5060011;27;20029;-49
2021/11/27 09:32:56;;;;;;;4.78;4.05;;;;;;;13.34;48.51;92317.47;5061868;27;20424;-47
2021/11/27 09:35:22;;;;;;;22.23;10.85;;;;;;;13.34;49.85;92308.47;5061046;27;20025;-45
2021/11/27 09:37:49;;;;;;;4.35;3.95;;;;;;;13.30;49.08;92327.56;5060244;28;20032;-46
2021/11/27 09:40:15;;;;;;;2.95;2.45;;;;;;;13.32;47.81;92320.13;5055569;27;20698;-45
2021/11/27 09:42:41;;;;;;;9.35;5.40;;;;;;;13.38;49.21;92325.34;5040850;28;20029;-46
2021/11/27 09:45:08;;;;;;;8.82;3.28;;;;;;;13.37;49.25;92319.06;5040966;28;20025;-48
2021/11/27 10:01:28;;;;;;;7.63;5.53;;;;;;;13.90;47.12;92341.88;5061179;28;20611;-40
2021/11/27 10:04:03;;;;;;;6.25;4.53;;;;;;;13.85;47.25;92332.56;5061112;28;20040;-42
2021/11/27 10:06:34;;;;;;;7.10;5.22;;;;;;;13.86;47.59;92336.78;5053297;28;20100;-44
2021/11/27 10:09:05;;;;;;;25.38;14.18;;;;;;;13.87;47.89;92343.81;5049908;28;20100;-47
2021/11/27 10:11:31;;;;;;;21.27;12.95;;;;;;;13.84;47.62;92347.75;5050407;28;20104;-46
2021/11/27 10:13:56;;;;;;;3.25;2.50;;;;;;;13.81;45.55;92351.00;5052890;28;20105;-45
2021/11/27 10:16:22;;;;;;;5.28;2.65;;;;;;;13.56;45.39;92337.59;5051963;28;20022;-41
2021/11/27 10:19:04;;;;;;;6.43;4.32;;;;;;;13.49;46.26;92336.50;5050534;27;20520;-44
2021/11/27 10:21:29;;;;;;;2.97;2.05;;;;;;;13.60;45.29;92326.78;5050065;28;20472;-43
2021/11/27 10:23:55;;;;;;;7.80;4.72;;;;;;;13.87;45.75;92323.66;5049124;28;20028;-45
2021/11/27 10:26:36;;;;;;;10.05;6.65;;;;;;;14.33;45.25;92323.81;5050700;28;20019;-44
2021/11/27 10:41:21;;;;;;;2.95;1.17;;;;;;;16.35;37.99;92311.31;5051915;28;20628;-48
2021/11/27 10:44:08;;;;;;;2.55;1.60;;;;;;;15.96;39.92;92314.00;5049803;28;20043;-48
2021/11/27 10:46:36;;;;;;;3.15;1.77;;;;;;;15.72;39.57;92318.25;5051198;28;20028;-44
2021/11/27 10:49:07;;;;;;;3.40;2.40;;;;;;;15.47;40.61;92312.59;5050225;28;20005;-45
2021/11/27 10:51:33;;;;;;;11.70;4.75;;;;;;;15.23;40.37;92313.94;5043090;28;20463;-47
2021/11/27 10:54:04;;;;;;;1.50;1.40;;;;;;;15.04;39.79;92309.38;5042916;28;20025;-46
2021/11/27 10:56:45;;;;;;;7.32;4.07;;;;;;;14.78;40.48;92311.31;5043057;28;20029;-45
2021/11/27 10:59:12;;;;;;;2.50;2.30;;;;;;;14.59;40.41;92299.72;5050746;28;20450;-43
2021/11/27 11:02:11;;;;;;;4.38;1.70;;;;;;;14.62;42.00;92315.88;5060641;28;20089;-47
2021/11/27 11:04:37;;;;;;;4.22;1.92;;;;;;;14.79;40.74;92307.19;5053711;28;20040;-46
2021/11/27 11:07:20;;;;;;;7.82;2.40;;;;;;;14.83;40.85;92315.81;5061865;28;20037;-45
2021/11/27 11:10:12;;;;;;;2.15;1.85;;;;;;;14.91;41.85;92312.75;5062494;28;20021;-47
2021/11/27 11:12:59;;;;;;;4.45;3.63;;;;;;;15.07;40.72;92314.44;5062020;28;20033;-45
2021/11/27 11:15:34;;;;;;;9.88;6.72;;;;;;;15.33;39.91;92304.16;5062681;28;20087;-40
2021/11/27 11:18:05;;;;;;;2.17;1.63;;;;;;;15.66;39.16;92306.75;5062565;27;20024;-43
2021/11/27 11:20:31;;;;;;;2.05;1.85;;;;;;;15.54;41.03;92294.94;5060462;28;20045;-45
2021/11/27 11:23:09;;;;;;;1.73;1.35;;;;;;;15.11;38.79;92306.38;5048769;28;20048;-45
2021/11/27 11:25:38;;;;;;;3.13;2.40;;;;;;;14.84;42.67;92317.25;5049975;28;20077;-49
2021/11/27 11:28:15;;;;;;;1.73;1.40;;;;;;;14.57;42.72;92314.22;5053830;28;20158;-42
2021/11/27 11:44:32;;;;;;;5.63;3.10;;;;;;;14.32;40.23;92262.00;5127257;27;21077;-51
2021/11/27 11:46:59;;;;;;;7.50;3.85;;;;;;;14.27;40.29;92265.81;5127513;27;20119;-50
2021/11/27 11:49:26;;;;;;;5.60;3.75;;;;;;;14.00;40.91;92265.53;5131133;27;20018;-46
2021/11/27 11:52:01;;;;;;;3.70;2.25;;;;;;;13.92;41.46;92269.88;5126773;27;20079;-48
2021/11/27 11:54:31;;;;;;;2.58;1.95;;;;;;;13.86;41.55;92270.19;5126104;28;20028;-52
2021/11/27 11:57:05;;;;;;;11.73;7.68;;;;;;;13.95;41.18;92263.84;5126126;28;20047;-46
2021/11/27 11:59:37;;;;;;;4.07;3.30;;;;;;;14.04;41.51;92281.72;5127179;27;20027;-46
2021/11/27 12:02:26;;;;;;;4.72;2.83;;;;;;;14.18;41.31;92285.38;5127050;27;20081;-47
2021/11/27 12:04:58;;;;;;;2.67;2.45;;;;;;;13.71;46.74;92275.47;5126317;28;20543;-47
2021/11/27 12:07:41;;;;;;;10.65;7.10;;;;;;;13.43;48.62;92274.38;5134008;27;20084;-47
2021/11/27 12:10:19;;;;;;;9.20;6.53;;;;;;;13.44;49.32;92278.59;5147915;27;20034;-46
2021/11/27 12:13:05;;;;;;;4.50;3.50;;;;;;;13.65;49.07;92270.97;5147579;27;20022;-50
2021/11/27 12:15:39;;;;;;;3.30;2.60;;;;;;;13.64;48.09;92261.19;5147379;27;20164;-46
2021/11/27 12:18:10;;;;;;;3.75;2.78;;;;;;;13.68;48.00;92271.84;5147837;27;20029;-47
2021/11/27 12:20:50;;;;;;;4.20;2.60;;;;;;;13.75;46.96;92248.00;5147673;27;20072;-48
2021/11/27 12:23:39;;;;;;;4.53;2.72;;;;;;;14.33;46.85;92257.19;5147310;27;20019;-46
2021/11/27 12:26:11;;;;;;;7.78;3.85;;;;;;;14.80;45.40;92257.91;5147033;27;20094;-47
2021/11/27 12:28:40;;;;;;;4.28;3.13;;;;;;;14.70;45.15;92254.53;5147179;27;20054;-53
2021/11/27 12:31:15;;;;;;;;;;;;;;;14.43;46.01;92235.56;5134932;27;20512;-46
2021/11/27 12:34:00;;;;;;;2.33;2.13;;;;;;;14.20;44.13;92244.59;5125272;28;19911;-48
2021/11/27 12:52:14;;;;;;;2.40;2.00;;;;;;;15.44;41.10;92258.22;5147331;27;20632;-47
2021/11/27 12:55:18;;;;;;;3.00;1.98;;;;;;;15.25;40.95;92267.53;5148306;27;20511;-45
2021/11/27 12:57:46;;;;;;;3.95;1.50;;;;;;;14.84;41.19;92258.88;5136457;27;20122;-42
2021/11/27 13:00:19;;;;;;;2.85;1.85;;;;;;;14.48;43.38;92270.59;5130766;27;20022;-43
2021/11/27 13:03:00;;;;;;;2.20;2.00;;;;;;;14.22;44.90;92277.31;5148225;27;20031;-42
2021/11/27 13:05:40;;;;;;;3.10;2.80;;;;;;;13.85;46.64;92268.75;5147889;27;20031;-42
2021/11/27 13:08:08;;;;;;;5.60;2.45;;;;;;;13.35;48.08;92263.50;5132949;27;20042;-42
2021/11/27 13:10:40;;;;;;;2.30;2.10;;;;;;;12.99;49.26;92269.41;5127197;27;20036;-42
2021/11/27 13:13:19;;;;;;;3.35;2.55;;;;;;;13.05;49.42;92258.03;5127805;27;20027;-42
2021/11/27 13:15:51;;;;;;;6.93;4.80;;;;;;;13.05;49.12;92263.56;5132571;27;20451;-42
2021/11/27 13:18:21;;;;;;;5.95;3.08;;;;;;;13.23;49.58;92271.00;5147897;27;20478;-43
2021/11/27 13:20:57;;;;;;;12.77;4.40;;;;;;;13.58;49.19;92274.69;5147435;27;20103;-43
2021/11/27 13:23:29;;;;;;;14.95;6.90;;;;;;;13.92;48.25;92270.59;5147579;27;20054;-43
2021/11/27 13:25:55;;;;;;;12.23;6.38;;;;;;;14.17;48.04;92275.59;5147397;27;20034;-42
2021/11/27 13:28:27;;;;;;;7.78;5.18;;;;;;;14.29;47.51;92270.81;5147479;27;20093;-44
2021/11/27 13:30:54;;;;;;;5.03;4.32;;;;;;;14.24;46.82;92269.09;5116127;27;20050;-43
2021/11/27 13:33:21;;;;;;;6.10;3.08;;;;;;;14.16;46.39;92271.38;5106536;28;20050;-42
2021/11/27 13:35:47;;;;;;;5.30;2.55;;;;;;;14.18;46.21;92279.84;5106413;28;20514;-43
2021/11/27 13:38:25;;;;;;;4.15;3.30;;;;;;;14.08;47.04;92279.19;5106365;28;20458;-43
2021/11/27 13:40:51;;;;;;;5.97;4.50;;;;;;;13.95;47.62;92280.47;5106046;28;20016;-45
2021/11/27 13:43:16;;;;;;;6.45;4.70;;;;;;;13.71;48.25;92290.03;5106250;28;20060;-44
2021/11/27 13:45:42;;;;;;;2.90;2.50;;;;;;;13.52;48.36;92293.72;5105944;28;20036;-43
2021/11/27 13:48:09;;;;;;;3.47;2.83;;;;;;;13.09;49.38;92275.66;5110005;27;20027;-43
2021/11/27 13:50:46;;;;;;;4.75;3.00;;;;;;;13.15;49.46;92289.16;5123117;27;20043;-42
2021/11/27 13:53:13;;;;;;;4.90;3.67;;;;;;;12.97;49.77;92291.44;5112923;27;20028;-43
2021/11/27 13:55:53;;;;;;;3.33;2.70;;;;;;;12.83;50.24;92290.50;5108973;28;20543;-43
2021/11/27 13:58:22;;;;;;;3.13;2.63;;;;;;;12.74;50.31;92294.03;5102903;28;20027;-41
2021/11/27 14:00:48;;;;;;;4.30;3.00;;;;;;;12.54;50.92;92287.88;5101294;28;20485;-43